createdAt,value
2022-11-16T00:00:44.788Z,95761.25
2022-11-16T00:03:11.086Z,95761.22
2022-11-16T00:05:37.346Z,95766.81
2022-11-16T00:08:03.613Z,95773.25
2022-11-16T00:10:29.880Z,95770.03
2022-11-16T00:12:56.156Z,95770.00
2022-11-16T00:15:22.407Z,95770.00
2022-11-16T00:17:48.653Z,95789.53
2022-11-16T00:20:14.904Z,95772.41
2022-11-16T00:22:41.153Z,95779.31
2022-11-16T00:25:07.403Z,95790.31
2022-11-16T00:27:33.678Z,95783.88
2022-11-16T00:29:59.936Z,95792.69
2022-11-16T00:32:26.179Z,95799.63
2022-11-16T00:34:52.465Z,95793.47
2022-11-16T00:37:18.693Z,95790.78
2022-11-16T00:39:44.939Z,95793.47
2022-11-16T00:42:11.171Z,95808.47
2022-11-16T00:44:37.399Z,95815.97
2022-11-16T00:47:03.647Z,95809.03
2022-11-16T00:49:29.889Z,95813.31
2022-11-16T00:51:56.162Z,95815.69
2022-11-16T00:54:22.458Z,95818.91
2022-11-16T00:56:48.689Z,95829.06
2022-11-16T00:59:14.933Z,95826.09
2022-11-16T01:01:41.209Z,95827.66
2022-11-16T01:04:07.515Z,95830.34
2022-11-16T01:06:33.748Z,95827.66
2022-11-16T01:08:59.987Z,95838.38
2022-11-16T01:11:26.236Z,95837.56
2022-11-16T01:13:52.483Z,95824.97
2022-11-16T01:16:18.741Z,95827.38
2022-11-16T01:18:44.992Z,95837.56
2022-11-16T01:21:11.232Z,95839.19
2022-11-16T01:23:37.493Z,95840.50
2022-11-16T01:26:03.733Z,95844.25
2022-11-16T01:28:30.132Z,95845.84
2022-11-16T01:30:56.528Z,95852.00
2022-11-16T01:33:22.762Z,95847.47
2022-11-16T01:35:48.999Z,95841.56
2022-11-16T01:38:15.247Z,95837.03
2022-11-16T01:40:41.495Z,95838.09
2022-11-16T01:43:07.753Z,95839.19
2022-11-16T01:45:33.988Z,95838.38
2022-11-16T01:48:00.265Z,95841.56
2022-11-16T01:50:26.548Z,95842.66
2022-11-16T01:52:52.910Z,95846.41
2022-11-16T01:55:19.151Z,95832.47
2022-11-16T01:57:45.375Z,95831.38
2022-11-16T02:00:11.644Z,95824.94
2022-11-16T02:02:37.880Z,95836.97
2022-11-16T02:05:04.114Z,95839.66
2022-11-16T02:07:30.445Z,95832.94
2022-11-16T02:09:56.742Z,95830.53
2022-11-16T02:12:22.987Z,95834.53
2022-11-16T02:14:49.223Z,95834.78
2022-11-16T02:17:15.457Z,95841.22
2022-11-16T02:19:41.704Z,95842.00
2022-11-16T02:22:08.004Z,95844.09
2022-11-16T02:24:34.299Z,95847.91
2022-11-16T02:27:00.540Z,95851.09
2022-11-16T02:29:26.804Z,95851.63
2022-11-16T02:31:53.060Z,95853.75
2022-11-16T02:34:19.316Z,95851.88
2022-11-16T02:36:45.572Z,95859.09
2022-11-16T02:39:11.851Z,95851.59
2022-11-16T02:41:38.091Z,95865.72
2022-11-16T02:44:04.354Z,95861.97
2022-11-16T02:46:30.612Z,95861.69
2022-11-16T02:48:56.855Z,95860.59
2022-11-16T02:51:23.095Z,95854.72
2022-11-16T02:53:49.403Z,95842.41
2022-11-16T02:56:15.656Z,95834.56
2022-11-16T02:58:41.928Z,95837.22
2022-11-16T03:01:08.217Z,95835.91
2022-11-16T03:03:34.535Z,95841.56
2022-11-16T03:06:00.788Z,95832.72
2022-11-16T03:08:27.047Z,95824.16
2022-11-16T03:10:53.312Z,95816.88
2022-11-16T03:13:19.556Z,95809.63
2022-11-16T03:15:45.812Z,95810.72
2022-11-16T03:18:12.054Z,95807.50
2022-11-16T03:20:38.301Z,95808.59
2022-11-16T03:23:04.543Z,95803.22
2022-11-16T03:25:30.803Z,95809.09
2022-11-16T03:27:57.081Z,95797.59
2022-11-16T03:30:24.045Z,95802.16
2022-11-16T03:32:50.421Z,95793.03
2022-11-16T03:35:16.761Z,95800.00
2022-11-16T03:37:43.008Z,95791.72
2022-11-16T03:40:09.234Z,95794.97
2022-11-16T03:42:35.498Z,95787.19
2022-11-16T03:45:01.746Z,95790.97
2022-11-16T03:47:27.999Z,95788.00
2022-11-16T03:49:54.251Z,95778.81
2022-11-16T03:52:20.522Z,95783.69
2022-11-16T03:54:46.777Z,95780.47
2022-11-16T03:57:13.004Z,95774.88
2022-11-16T03:59:39.357Z,95778.16
2022-11-16T04:02:05.589Z,95785.09
2022-11-16T04:04:31.825Z,95773.00
2022-11-16T04:06:58.123Z,95770.84
2022-11-16T04:09:24.431Z,95779.97
2022-11-16T04:11:50.659Z,95775.13
2022-11-16T04:14:16.916Z,95774.31
2022-11-16T04:16:43.172Z,95778.59
2022-11-16T04:19:09.432Z,95782.06
2022-11-16T04:21:35.719Z,95775.41
2022-11-16T04:24:01.970Z,95780.19
2022-11-16T04:26:28.209Z,95784.75
2022-11-16T04:28:54.466Z,95780.53
2022-11-16T04:31:20.713Z,95778.94
2022-11-16T04:33:46.978Z,95780.53
2022-11-16T04:36:17.887Z,95789.34
2022-11-16T04:38:46.581Z,95787.00
2022-11-16T04:41:12.869Z,95787.75
2022-11-16T04:43:39.213Z,95793.91
2022-11-16T04:46:05.454Z,95789.66
2022-11-16T04:48:31.993Z,95791.25
2022-11-16T04:50:58.466Z,95796.41
2022-11-16T04:53:24.711Z,95795.31
2022-11-16T04:55:50.939Z,95793.72
2022-11-16T04:58:17.278Z,95791.31
2022-11-16T05:00:43.762Z,95782.81
2022-11-16T05:03:10.127Z,95784.69
2022-11-16T05:05:36.395Z,95784.41
2022-11-16T05:08:02.721Z,95778.28
2022-11-16T05:10:28.970Z,95790.09
2022-11-16T05:12:55.234Z,95785.25
2022-11-16T05:15:21.480Z,95794.69
2022-11-16T05:17:47.725Z,95792.34
2022-11-16T05:20:13.999Z,95792.16
2022-11-16T05:22:41.342Z,95781.72
2022-11-16T05:25:07.598Z,95787.03
2022-11-16T05:27:33.851Z,95784.03
2022-11-16T05:30:00.155Z,95789.63
2022-11-16T05:32:26.416Z,95785.88
2022-11-16T05:34:52.715Z,95784.25
2022-11-16T05:37:18.951Z,95787.47
2022-11-16T05:39:45.229Z,95782.13
2022-11-16T05:42:11.466Z,95778.94
2022-11-16T05:44:37.712Z,95778.44
2022-11-16T05:47:03.965Z,95777.88
2022-11-16T05:49:30.203Z,95767.19
2022-11-16T05:51:56.445Z,95771.97
2022-11-16T05:54:22.694Z,95774.09
2022-11-16T05:56:48.921Z,95778.09
2022-11-16T05:59:16.648Z,95780.78
2022-11-16T06:01:43.034Z,95786.94
2022-11-16T06:04:09.299Z,95786.94
2022-11-16T06:06:35.554Z,95782.09
2022-11-16T06:09:01.797Z,95788.00
2022-11-16T06:11:32.716Z,95787.47
2022-11-16T06:14:01.723Z,95785.31
2022-11-16T06:16:27.964Z,95784.81
2022-11-16T06:18:54.202Z,95780.53
2022-11-16T06:21:20.492Z,95776.25
2022-11-16T06:23:46.730Z,95788.03
2022-11-16T06:26:13.032Z,95776.06
2022-11-16T06:28:39.294Z,95781.72
2022-11-16T06:31:05.531Z,95780.88
2022-11-16T06:33:33.701Z,95781.41
2022-11-16T06:36:00.190Z,95784.09
2022-11-16T06:38:26.429Z,95779.25
2022-11-16T06:40:52.745Z,95784.03
2022-11-16T06:43:18.977Z,95785.94
2022-11-16T06:45:45.320Z,95782.16
2022-11-16T06:48:11.583Z,95785.13
2022-11-16T06:50:37.818Z,95779.53
2022-11-16T06:53:04.068Z,95783.84
2022-11-16T06:55:30.306Z,95785.44
2022-11-16T06:57:56.551Z,95786.28
2022-11-16T07:00:22.822Z,95793.50
2022-11-16T07:02:49.052Z,95794.31
2022-11-16T07:05:15.319Z,95790.84
2022-11-16T07:07:41.594Z,95791.34
2022-11-16T07:10:07.868Z,95795.06
2022-11-16T07:12:34.110Z,95804.72
2022-11-16T07:15:00.361Z,95811.41
2022-11-16T07:17:26.634Z,95808.47
2022-11-16T07:19:52.902Z,95815.41
2022-11-16T07:22:19.163Z,95818.09
2022-11-16T07:24:45.410Z,95817.03
2022-11-16T07:27:11.667Z,95824.50
2022-11-16T07:29:37.925Z,95823.47
2022-11-16T07:32:04.175Z,95826.69
2022-11-16T07:34:30.415Z,95831.50
2022-11-16T07:36:56.691Z,95824.78
2022-11-16T07:39:22.923Z,95830.47
2022-11-16T07:41:49.165Z,95824.84
2022-11-16T07:44:15.427Z,95827.56
2022-11-16T07:46:47.220Z,95821.97
2022-11-16T07:49:13.958Z,95828.34
2022-11-16T07:51:40.227Z,95823.81
2022-11-16T07:54:06.497Z,95827.56
2022-11-16T07:56:32.779Z,95821.91
2022-11-16T07:58:59.091Z,95824.84
2022-11-16T08:01:25.377Z,95828.53
2022-11-16T08:03:51.643Z,95827.19
2022-11-16T08:06:17.907Z,95830.91
2022-11-16T08:08:44.182Z,95833.25
2022-11-16T08:11:10.471Z,95828.13
2022-11-16T08:13:36.728Z,95835.06
2022-11-16T08:16:03.058Z,95832.88
2022-11-16T08:18:29.309Z,95843.34
2022-11-16T08:20:57.493Z,95835.31
2022-11-16T08:23:23.763Z,95843.06
2022-11-16T08:25:50.019Z,95849.22
2022-11-16T08:28:16.293Z,95848.19
2022-11-16T08:30:42.546Z,95841.53
2022-11-16T08:33:08.807Z,95840.44
2022-11-16T08:35:35.084Z,95838.28
2022-11-16T08:38:01.372Z,95834.50
2022-11-16T08:40:27.622Z,95832.63
2022-11-16T08:42:53.877Z,95839.28
2022-11-16T08:45:20.138Z,95829.19
2022-11-16T08:47:46.395Z,95833.72
2022-11-16T08:50:12.683Z,95829.16
2022-11-16T08:52:38.971Z,95833.44
2022-11-16T08:55:05.252Z,95837.19
2022-11-16T08:57:31.525Z,95834.47
2022-11-16T08:59:57.801Z,95830.72
2022-11-16T09:02:24.056Z,95836.31
2022-11-16T09:04:50.325Z,95830.59
2022-11-16T09:07:16.654Z,95828.41
2022-11-16T09:09:42.931Z,95832.16
2022-11-16T09:12:09.214Z,95832.06
2022-11-16T09:14:35.475Z,95825.53
2022-11-16T09:17:01.743Z,95829.00
2022-11-16T09:19:28.048Z,95828.97
2022-11-16T09:21:54.302Z,95829.72
2022-11-16T09:24:20.573Z,95821.16
2022-11-16T09:26:46.940Z,95825.94
2022-11-16T09:29:13.220Z,95815.31
2022-11-16T09:31:39.465Z,95820.63
2022-11-16T09:34:05.779Z,95819.03
2022-11-16T09:36:32.021Z,95825.19
2022-11-16T09:41:44.564Z,95826.50
2022-11-16T09:44:10.836Z,95830.78
2022-11-16T09:46:37.078Z,95835.06
2022-11-16T09:49:03.370Z,95838.84
2022-11-16T09:51:29.630Z,95840.16
2022-11-16T09:53:55.957Z,95846.53
2022-11-16T09:56:22.717Z,95844.91
2022-11-16T09:58:49.079Z,95846.25
2022-11-16T10:01:15.358Z,95844.66
2022-11-16T10:03:41.694Z,95850.75
2022-11-16T10:06:07.934Z,95850.09
2022-11-16T10:08:34.446Z,95845.50
2022-11-16T10:11:00.969Z,95843.47
2022-11-16T10:13:27.211Z,95843.91
2022-11-16T10:15:53.559Z,95845.06
2022-11-16T10:18:19.865Z,95840.94
2022-11-16T10:20:46.097Z,95842.19
2022-11-16T10:23:12.346Z,95845.16
2022-11-16T10:25:38.615Z,95834.78
2022-11-16T10:28:04.878Z,95835.06
2022-11-16T10:30:31.142Z,95833.59
2022-11-16T10:32:57.382Z,95843.41
2022-11-16T10:35:23.639Z,95826.91
2022-11-16T10:37:49.905Z,95826.91
2022-11-16T10:40:16.174Z,95816.47
2022-11-16T10:42:42.421Z,95805.72
2022-11-16T10:45:08.711Z,95808.34
2022-11-16T10:47:35.054Z,95811.56
2022-11-16T10:50:01.353Z,95809.84
2022-11-16T10:52:27.587Z,95806.66
2022-11-16T10:54:53.852Z,95807.22
2022-11-16T10:57:20.132Z,95804.41
2022-11-16T10:59:46.388Z,95795.50
2022-11-16T11:02:12.664Z,95785.59
2022-11-16T11:04:38.897Z,95778.84
2022-11-16T11:07:05.165Z,95775.19
2022-11-16T11:09:31.432Z,95774.97
2022-11-16T11:11:57.749Z,95781.81
2022-11-16T11:14:23.988Z,95790.72
2022-11-16T11:16:50.234Z,95787.69
2022-11-16T11:19:16.507Z,95780.31
2022-11-16T11:21:42.839Z,95769.59
2022-11-16T11:24:42.264Z,95767.72
2022-11-16T11:26:55.404Z,95765.59
2022-11-16T11:29:21.658Z,95759.22
2022-11-16T11:31:47.943Z,95744.25
2022-11-16T11:34:14.280Z,95740.66
2022-11-16T11:36:40.538Z,95732.84
2022-11-16T11:39:06.807Z,95732.69
2022-11-16T11:41:33.089Z,95731.41
2022-11-16T11:43:59.352Z,95742.50
2022-11-16T11:46:35.862Z,95740.56
2022-11-16T11:49:11.916Z,95740.69
2022-11-16T11:51:38.161Z,95730.13
2022-11-16T11:54:04.444Z,95719.81
2022-11-16T11:56:30.734Z,95715.44
2022-11-16T11:58:56.976Z,95707.81
2022-11-16T12:01:25.578Z,95703.97
2022-11-16T12:03:52.143Z,95702.06
2022-11-16T12:06:18.402Z,95706.44
2022-11-16T12:08:44.758Z,95713.25
2022-11-16T12:11:10.999Z,95706.66
2022-11-16T12:13:37.504Z,95705.81
2022-11-16T12:16:03.926Z,95692.22
2022-11-16T12:18:30.198Z,95686.38
2022-11-16T12:20:56.442Z,95690.19
2022-11-16T12:23:22.694Z,95693.00
2022-11-16T12:25:48.985Z,95687.91
2022-11-16T12:28:15.248Z,95690.19
2022-11-16T12:30:41.532Z,95668.50
2022-11-16T12:33:07.772Z,95676.25
2022-11-16T12:35:34.015Z,95667.50
2022-11-16T12:38:00.320Z,95669.47
2022-11-16T12:40:26.602Z,95664.91
2022-11-16T12:42:52.889Z,95666.09
2022-11-16T12:45:19.241Z,95680.22
2022-11-16T12:47:45.520Z,95663.41
2022-11-16T12:50:11.821Z,95653.56
2022-11-16T12:52:38.099Z,95648.88
2022-11-16T12:55:25.443Z,95643.59
2022-11-16T12:57:50.631Z,95643.19
2022-11-16T13:00:16.868Z,95639.31
2022-11-16T13:02:43.104Z,95648.66
2022-11-16T13:05:09.400Z,95631.13
2022-11-16T13:07:35.688Z,95625.88
2022-11-16T13:10:02.120Z,95631.03
2022-11-16T13:12:28.477Z,95628.44
2022-11-16T13:14:54.704Z,95621.38
2022-11-16T13:17:21.060Z,95624.66
2022-11-16T13:19:47.429Z,95607.94
2022-11-16T13:22:13.680Z,95608.63
2022-11-16T13:24:39.951Z,95605.84
2022-11-16T13:27:06.235Z,95617.69
2022-11-16T13:29:32.530Z,95598.81
2022-11-16T13:31:58.814Z,95605.66
2022-11-16T13:34:25.069Z,95594.38
2022-11-16T13:36:51.334Z,95601.47
2022-11-16T13:39:22.293Z,95603.72
2022-11-16T13:41:49.332Z,95601.28
2022-11-16T13:44:15.618Z,95600.06
2022-11-16T13:46:55.247Z,95594.00
2022-11-16T13:49:22.308Z,95597.06
2022-11-16T13:51:48.570Z,95600.06
2022-11-16T13:57:01.055Z,95593.44
2022-11-16T13:59:27.294Z,95584.88
2022-11-16T14:01:53.544Z,95575.75
2022-11-16T14:04:19.801Z,95579.75
2022-11-16T14:06:46.075Z,95578.03
2022-11-16T14:09:12.309Z,95579.34
2022-11-16T14:11:38.559Z,95569.38
2022-11-16T14:14:04.872Z,95560.91
2022-11-16T14:16:31.152Z,95555.94
2022-11-16T14:18:57.420Z,95563.34
2022-11-16T14:21:23.667Z,95565.66
2022-11-16T14:23:49.918Z,95564.25
2022-11-16T14:26:16.166Z,95557.22
2022-11-16T14:28:42.416Z,95559.41
2022-11-16T14:31:08.694Z,95568.84
2022-11-16T14:33:35.270Z,95560.78
2022-11-16T14:36:01.715Z,95570.66
2022-11-16T14:38:27.967Z,95555.84
2022-11-16T14:40:59.160Z,95551.91
2022-11-16T14:43:26.066Z,95544.56
2022-11-16T14:45:52.332Z,95541.69
2022-11-16T14:48:18.568Z,95533.50
2022-11-16T14:50:44.847Z,95526.34
2022-11-16T14:53:11.139Z,95526.66
2022-11-16T14:55:37.400Z,95532.34
2022-11-16T14:58:03.746Z,95540.72
2022-11-16T15:00:30.035Z,95538.03
2022-11-16T15:03:02.142Z,95535.53
2022-11-16T15:05:28.979Z,95538.63
2022-11-16T15:07:55.246Z,95544.09
2022-11-16T15:10:21.516Z,95540.22
2022-11-16T15:12:47.789Z,95542.91
2022-11-16T15:15:14.067Z,95548.94
2022-11-16T15:17:40.340Z,95547.72
2022-11-16T15:20:06.686Z,95541.06
2022-11-16T15:22:32.984Z,95543.06
2022-11-16T15:24:59.889Z,95541.41
2022-11-16T15:27:26.198Z,95546.66
2022-11-16T15:29:52.491Z,95535.03
2022-11-16T15:32:18.729Z,95529.44
2022-11-16T15:34:44.986Z,95520.56
2022-11-16T15:37:11.291Z,95522.22
2022-11-16T15:39:37.582Z,95518.13
2022-11-16T15:42:04.468Z,95517.94
2022-11-16T15:44:30.798Z,95514.09
2022-11-16T15:46:57.055Z,95516.47
2022-11-16T15:49:23.287Z,95511.97
2022-11-16T15:51:49.536Z,95505.66
2022-11-16T15:54:15.829Z,95500.28
2022-11-16T15:56:42.084Z,95504.09
2022-11-16T15:59:08.329Z,95501.38
2022-11-16T16:01:34.745Z,95499.31
2022-11-16T16:04:01.016Z,95496.63
2022-11-16T16:06:27.270Z,95495.13
2022-11-16T16:08:53.563Z,95505.72
2022-11-16T16:11:25.461Z,95500.16
2022-11-16T16:13:52.983Z,95507.72
2022-11-16T16:16:19.267Z,95498.28
2022-11-16T16:18:45.506Z,95503.16
2022-11-16T16:21:11.744Z,95501.09
2022-11-16T16:23:37.985Z,95495.22
2022-11-16T16:26:04.329Z,95502.78
2022-11-16T16:28:30.587Z,95495.53
2022-11-16T16:30:56.835Z,95496.63
2022-11-16T16:33:23.082Z,95506.28
2022-11-16T16:35:49.316Z,95501.00
2022-11-16T16:38:15.626Z,95496.22
2022-11-16T16:40:41.857Z,95503.69
2022-11-16T16:43:08.094Z,95498.72
2022-11-16T16:45:34.330Z,95506.91
2022-11-16T16:48:00.566Z,95499.63
2022-11-16T16:50:26.798Z,95500.22
2022-11-16T16:52:53.051Z,95494.56
2022-11-16T16:55:19.358Z,95493.75
2022-11-16T16:57:45.600Z,95488.69
2022-11-16T17:00:11.856Z,95492.97
2022-11-16T17:02:38.129Z,95487.59
2022-11-16T17:05:04.378Z,95482.31
2022-11-16T17:07:30.684Z,95478.34
2022-11-16T17:09:57.090Z,95486.22
2022-11-16T17:12:23.319Z,95480.63
2022-11-16T17:14:49.559Z,95484.75
2022-11-16T17:17:15.805Z,95476.06
2022-11-16T17:19:42.098Z,95475.09
2022-11-16T17:22:08.369Z,95474.88
2022-11-16T17:24:34.634Z,95463.94
2022-11-16T17:27:00.888Z,95463.53
2022-11-16T17:29:27.135Z,95466.53
2022-11-16T17:31:53.443Z,95458.25
2022-11-16T17:34:19.700Z,95462.34
2022-11-16T17:36:45.950Z,95464.03
2022-11-16T17:39:12.194Z,95460.84
2022-11-16T17:41:38.425Z,95461.16
2022-11-16T17:44:04.657Z,95466.53
2022-11-16T17:46:30.905Z,95464.44
2022-11-16T17:48:57.155Z,95452.41
2022-11-16T17:51:23.396Z,95435.50
2022-11-16T17:53:49.640Z,95440.16
2022-11-16T17:56:15.893Z,95425.75
2022-11-16T17:58:42.150Z,95408.94
2022-11-16T18:01:08.504Z,95399.09
2022-11-16T18:03:35.007Z,95400.88
2022-11-16T18:06:01.509Z,95404.16
2022-11-16T18:08:27.774Z,95400.00
2022-11-16T18:10:54.017Z,95399.59
2022-11-16T18:13:20.284Z,95395.72
2022-11-16T18:15:46.606Z,95390.34
2022-11-16T18:18:12.853Z,95394.63
2022-11-16T18:20:39.106Z,95404.34
2022-11-16T18:23:05.471Z,95397.50
2022-11-16T18:25:31.739Z,95396.19
2022-11-16T18:27:58.081Z,95398.09
2022-11-16T18:30:24.331Z,95397.00
2022-11-16T18:32:50.591Z,95397.59
2022-11-16T18:35:16.851Z,95393.59
2022-11-16T18:37:43.117Z,95392.31
2022-11-16T18:40:09.370Z,95394.19
2022-11-16T18:42:35.638Z,95386.44
2022-11-16T18:45:01.881Z,95378.19
2022-11-16T18:47:28.130Z,95379.88
2022-11-16T18:49:54.484Z,95375.59
2022-11-16T18:52:20.757Z,95366.16
2022-11-16T18:54:47.010Z,95361.09
2022-11-16T18:57:13.279Z,95360.59
2022-11-16T18:59:39.541Z,95349.88
2022-11-16T19:02:05.808Z,95344.31
2022-11-16T19:04:32.100Z,95340.34
2022-11-16T19:06:58.386Z,95339.53
2022-11-16T19:09:24.703Z,95355.44
2022-11-16T19:11:51.040Z,95359.19
2022-11-16T19:14:17.314Z,95360.56
2022-11-16T19:16:51.168Z,95346.59
2022-11-16T19:19:20.466Z,95332.94
2022-11-16T19:21:46.927Z,95328.66
2022-11-16T19:24:13.254Z,95335.41
2022-11-16T19:26:39.554Z,95340.50
2022-11-16T19:29:05.815Z,95329.16
2022-11-16T19:31:32.068Z,95323.31
2022-11-16T19:33:58.328Z,95312.56
2022-11-16T19:36:24.635Z,95302.44
2022-11-16T19:38:50.965Z,95287.16
2022-11-16T19:41:17.235Z,95293.41
2022-11-16T19:43:43.495Z,95301.75
2022-11-16T19:46:09.794Z,95300.94
2022-11-16T19:48:36.120Z,95300.44
2022-11-16T19:51:02.397Z,95302.13
2022-11-16T19:53:28.702Z,95297.75
2022-11-16T19:55:54.960Z,95295.59
2022-11-16T19:58:21.216Z,95289.13
2022-11-16T20:00:47.576Z,95278.50
2022-11-16T20:03:13.925Z,95273.44
2022-11-16T20:05:40.169Z,95276.91
2022-11-16T20:08:06.478Z,95286.53
2022-11-16T20:10:32.759Z,95292.69
2022-11-16T20:12:59.096Z,95301.75
2022-11-16T20:15:25.354Z,95303.63
2022-11-16T20:17:51.640Z,95301.75
2022-11-16T20:20:17.987Z,95304.72
2022-11-16T20:22:44.283Z,95311.66
2022-11-16T20:25:10.535Z,95312.97
2022-11-16T20:27:36.784Z,95305.13
2022-11-16T20:30:09.113Z,95300.56
2022-11-16T20:32:35.914Z,95325.00
2022-11-16T20:35:02.218Z,95332.03
2022-11-16T20:37:28.677Z,95330.16
2022-11-16T20:39:54.930Z,95317.81
2022-11-16T20:42:21.231Z,95307.69
2022-11-16T20:44:47.497Z,95322.00
2022-11-16T20:47:13.876Z,95324.16
2022-11-16T20:49:40.116Z,95322.78
2022-11-16T20:52:06.463Z,95315.31
2022-11-16T20:54:32.773Z,95319.91
2022-11-16T20:56:59.071Z,95330.91
2022-11-16T20:59:25.374Z,95331.72
2022-11-16T21:01:51.661Z,95338.16
2022-11-16T21:04:17.964Z,95352.34
2022-11-16T21:06:44.221Z,95353.16
2022-11-16T21:09:10.464Z,95378.59
2022-11-16T21:11:36.787Z,95374.81
2022-11-16T21:14:03.048Z,95380.47
2022-11-16T21:16:29.384Z,95383.94
2022-11-16T21:18:55.680Z,95372.63
2022-11-16T21:21:21.957Z,95361.13
2022-11-16T21:23:48.243Z,95353.56
2022-11-16T21:26:14.528Z,95373.44
2022-11-16T21:28:40.806Z,95385.75
2022-11-16T21:31:07.061Z,95385.44
2022-11-16T21:33:33.591Z,95394.00
2022-11-16T21:36:00.103Z,95380.00
2022-11-16T21:38:26.347Z,95379.22
2022-11-16T21:40:52.664Z,95376.72
2022-11-16T21:43:18.952Z,95374.84
2022-11-16T21:45:45.199Z,95378.91
2022-11-16T21:48:11.458Z,95380.59
2022-11-16T21:50:37.690Z,95375.53
2022-11-16T21:53:03.925Z,95378.00
2022-11-16T21:55:30.205Z,95370.16
2022-11-16T21:57:56.453Z,95370.25
2022-11-16T22:00:22.694Z,95360.03
2022-11-16T22:02:48.952Z,95360.72
2022-11-16T22:05:15.186Z,95366.69
2022-11-16T22:07:41.434Z,95369.06
2022-11-16T22:10:07.695Z,95362.91
2022-11-16T22:12:33.971Z,95361.31
2022-11-16T22:15:00.217Z,95356.75
2022-11-16T22:17:26.491Z,95366.38
2022-11-16T22:19:52.742Z,95370.66
2022-11-16T22:22:19.002Z,95377.03
2022-11-16T22:24:45.272Z,95373.34
2022-11-16T22:27:11.529Z,95381.19
2022-11-16T22:29:37.776Z,95386.63
2022-11-16T22:32:04.032Z,95389.72
2022-11-16T22:34:30.324Z,95362.63
2022-11-16T22:36:56.565Z,95353.97
2022-11-16T22:39:22.819Z,95371.47
2022-11-16T22:41:49.095Z,95374.34
2022-11-16T22:44:15.346Z,95376.53
2022-11-16T22:46:41.598Z,95364.50
2022-11-16T22:49:07.911Z,95368.47
2022-11-16T22:51:34.186Z,95379.22
2022-11-16T22:54:00.525Z,95371.97
2022-11-16T22:56:26.790Z,95377.31
2022-11-16T22:58:53.028Z,95383.06
2022-11-16T23:01:19.316Z,95382.78
2022-11-16T23:03:45.644Z,95389.88
2022-11-16T23:06:11.941Z,95391.69
2022-11-16T23:08:38.198Z,95380.50
2022-11-16T23:11:04.437Z,95409.75
2022-11-16T23:13:30.668Z,95397.16
2022-11-16T23:15:56.923Z,95401.78
2022-11-16T23:18:23.216Z,95387.53
2022-11-16T23:20:49.481Z,95392.72
2022-11-16T23:23:15.722Z,95384.63
2022-11-16T23:25:41.968Z,95371.44
2022-11-16T23:28:08.227Z,95368.66
2022-11-16T23:30:34.553Z,95378.50
2022-11-16T23:33:00.800Z,95388.41
2022-11-16T23:35:27.784Z,95393.97
2022-11-16T23:37:54.280Z,95393.56
2022-11-16T23:40:20.534Z,95380.13
2022-11-16T23:42:46.789Z,95364.44
2022-11-16T23:45:13.050Z,95340.66
2022-11-16T23:47:39.299Z,95330.84
2022-11-16T23:50:05.618Z,95310.69
2022-11-16T23:52:31.869Z,95305.75
2022-11-16T23:54:58.141Z,95313.41
2022-11-16T23:57:24.385Z,95307.56
2022-11-16T23:59:50.658Z,95306.84
